sensor_id;sensor_type;location;lat;lon;timestamp;temperature;humidity
60234;DHT22;49514;43.538;-5.708;2023-05-10T00:01:17;14.10;99.90
60234;DHT22;49514;43.538;-5.708;2023-05-10T00:03:44;14.10;99.90
60234;DHT22;49514;43.538;-5.708;2023-05-10T00:06:10;14.10;99.90
60234;DHT22;49514;43.538;-5.708;2023-05-10T00:08:36;14.00;99.90
60234;DHT22;49514;43.538;-5.708;2023-05-10T00:11:03;13.90;99.90
60234;DHT22;49514;43.538;-5.708;2023-05-10T00:13:29;13.90;99.90
60234;DHT22;49514;43.538;-5.708;2023-05-10T00:15:56;13.80;99.90
60234;DHT22;49514;43.538;-5.708;2023-05-10T00:18:22;13.80;99.90
60234;DHT22;49514;43.538;-5.708;2023-05-10T00:20:49;13.70;99.90
60234;DHT22;49514;43.538;-5.708;2023-05-10T00:23:16;13.60;99.90
60234;DHT22;49514;43.538;-5.708;2023-05-10T00:25:42;13.60;99.90
60234;DHT22;49514;43.538;-5.708;2023-05-10T00:28:08;13.60;99.90
60234;DHT22;49514;43.538;-5.708;2023-05-10T00:30:37;13.50;99.90
60234;DHT22;49514;43.538;-5.708;2023-05-10T00:33:04;13.50;99.90
60234;DHT22;49514;43.538;-5.708;2023-05-10T00:35:31;13.50;99.90
60234;DHT22;49514;43.538;-5.708;2023-05-10T00:37:57;13.50;99.90
60234;DHT22;49514;43.538;-5.708;2023-05-10T00:40:24;13.50;99.90
60234;DHT22;49514;43.538;-5.708;2023-05-10T00:42:56;13.50;99.90
60234;DHT22;49514;43.538;-5.708;2023-05-10T00:45:22;13.50;99.90
60234;DHT22;49514;43.538;-5.708;2023-05-10T00:47:50;13.50;99.90
60234;DHT22;49514;43.538;-5.708;2023-05-10T00:50:21;13.50;99.90
60234;DHT22;49514;43.538;-5.708;2023-05-10T00:52:48;13.40;99.90
60234;DHT22;49514;43.538;-5.708;2023-05-10T00:55:15;13.30;99.90
60234;DHT22;49514;43.538;-5.708;2023-05-10T00:57:42;13.30;99.90
60234;DHT22;49514;43.538;-5.708;2023-05-10T01:00:09;13.20;99.90
60234;DHT22;49514;43.538;-5.708;2023-05-10T01:02:37;13.20;99.90
60234;DHT22;49514;43.538;-5.708;2023-05-10T01:05:04;13.20;99.90
60234;DHT22;49514;43.538;-5.708;2023-05-10T01:07:31;13.20;99.90
60234;DHT22;49514;43.538;-5.708;2023-05-10T01:09:57;13.10;99.90
60234;DHT22;49514;43.538;-5.708;2023-05-10T01:12:24;13.10;99.90
60234;DHT22;49514;43.538;-5.708;2023-05-10T01:14:51;13.10;99.90
60234;DHT22;49514;43.538;-5.708;2023-05-10T01:17:17;13.10;99.90
60234;DHT22;49514;43.538;-5.708;2023-05-10T01:19:44;13.10;99.90
60234;DHT22;49514;43.538;-5.708;2023-05-10T01:22:15;13.00;99.90
60234;DHT22;49514;43.538;-5.708;2023-05-10T01:25:08;13.00;99.90
60234;DHT22;49514;43.538;-5.708;2023-05-10T01:27:45;13.00;99.90
60234;DHT22;49514;43.538;-5.708;2023-05-10T01:32:45;12.90;99.90
60234;DHT22;49514;43.538;-5.708;2023-05-10T01:35:17;12.90;99.90
60234;DHT22;49514;43.538;-5.708;2023-05-10T01:37:46;12.80;99.90
60234;DHT22;49514;43.538;-5.708;2023-05-10T01:42:49;12.80;99.90
60234;DHT22;49514;43.538;-5.708;2023-05-10T01:45:27;12.80;99.90
60234;DHT22;49514;43.538;-5.708;2023-05-10T01:48:06;12.80;99.90
60234;DHT22;49514;43.538;-5.708;2023-05-10T01:50:34;12.90;99.90
60234;DHT22;49514;43.538;-5.708;2023-05-10T01:53:02;12.90;99.90
60234;DHT22;49514;43.538;-5.708;2023-05-10T01:55:29;13.00;99.90
60234;DHT22;49514;43.538;-5.708;2023-05-10T01:58:02;13.10;99.90
60234;DHT22;49514;43.538;-5.708;2023-05-10T02:00:30;13.20;99.90
60234;DHT22;49514;43.538;-5.708;2023-05-10T02:02:57;13.30;99.90
60234;DHT22;49514;43.538;-5.708;2023-05-10T02:05:23;13.30;99.90
60234;DHT22;49514;43.538;-5.708;2023-05-10T02:07:50;13.40;99.90
60234;DHT22;49514;43.538;-5.708;2023-05-10T02:10:17;13.40;99.90
60234;DHT22;49514;43.538;-5.708;2023-05-10T02:12:44;13.40;99.90
60234;DHT22;49514;43.538;-5.708;2023-05-10T02:15:12;13.30;99.90
60234;DHT22;49514;43.538;-5.708;2023-05-10T02:17:39;13.30;99.90
60234;DHT22;49514;43.538;-5.708;2023-05-10T02:20:06;13.30;99.90
60234;DHT22;49514;43.538;-5.708;2023-05-10T02:22:35;13.30;99.90
60234;DHT22;49514;43.538;-5.708;2023-05-10T02:25:03;13.30;99.90
60234;DHT22;49514;43.538;-5.708;2023-05-10T02:27:30;13.20;99.90
60234;DHT22;49514;43.538;-5.708;2023-05-10T02:29:58;13.10;99.90
60234;DHT22;49514;43.538;-5.708;2023-05-10T02:32:26;13.00;99.90
60234;DHT22;49514;43.538;-5.708;2023-05-10T02:34:54;13.10;99.90
60234;DHT22;49514;43.538;-5.708;2023-05-10T02:37:22;13.00;99.90
60234;DHT22;49514;43.538;-5.708;2023-05-10T02:39:52;12.90;99.90
60234;DHT22;49514;43.538;-5.708;2023-05-10T02:42:24;12.90;99.90
60234;DHT22;49514;43.538;-5.708;2023-05-10T02:44:57;12.80;99.90
60234;DHT22;49514;43.538;-5.708;2023-05-10T02:47:25;12.80;99.90
60234;DHT22;49514;43.538;-5.708;2023-05-10T02:49:52;12.80;99.90
60234;DHT22;49514;43.538;-5.708;2023-05-10T02:52:27;12.70;99.90
60234;DHT22;49514;43.538;-5.708;2023-05-10T02:54:59;12.80;99.90
60234;DHT22;49514;43.538;-5.708;2023-05-10T02:57:29;12.80;99.90
60234;DHT22;49514;43.538;-5.708;2023-05-10T02:59:58;12.80;99.90
60234;DHT22;49514;43.538;-5.708;2023-05-10T03:02:24;12.80;99.90
60234;DHT22;49514;43.538;-5.708;2023-05-10T03:04:51;12.90;99.90
60234;DHT22;49514;43.538;-5.708;2023-05-10T03:07:18;12.90;99.90
60234;DHT22;49514;43.538;-5.708;2023-05-10T03:09:49;12.80;99.90
60234;DHT22;49514;43.538;-5.708;2023-05-10T03:15:03;12.80;99.90
60234;DHT22;49514;43.538;-5.708;2023-05-10T03:17:55;12.80;99.90
60234;DHT22;49514;43.538;-5.708;2023-05-10T03:20:29;12.70;99.90
60234;DHT22;49514;43.538;-5.708;2023-05-10T03:23:04;12.70;99.90
60234;DHT22;49514;43.538;-5.708;2023-05-10T03:25:34;12.70;99.90
60234;DHT22;49514;43.538;-5.708;2023-05-10T03:28:04;12.80;99.90
60234;DHT22;49514;43.538;-5.708;2023-05-10T03:30:31;12.80;99.90
60234;DHT22;49514;43.538;-5.708;2023-05-10T03:33:06;12.80;99.90
60234;DHT22;49514;43.538;-5.708;2023-05-10T03:35:35;12.80;99.90
60234;DHT22;49514;43.538;-5.708;2023-05-10T03:38:02;12.90;99.90
60234;DHT22;49514;43.538;-5.708;2023-05-10T03:40:28;13.00;99.90
60234;DHT22;49514;43.538;-5.708;2023-05-10T03:42:58;13.10;99.90
60234;DHT22;49514;43.538;-5.708;2023-05-10T03:45:26;13.10;99.90
60234;DHT22;49514;43.538;-5.708;2023-05-10T03:47:53;13.00;99.90
60234;DHT22;49514;43.538;-5.708;2023-05-10T03:50:20;12.90;99.90
60234;DHT22;49514;43.538;-5.708;2023-05-10T03:52:48;12.80;99.90
60234;DHT22;49514;43.538;-5.708;2023-05-10T03:55:14;12.70;99.90
60234;DHT22;49514;43.538;-5.708;2023-05-10T03:57:42;12.70;99.90
60234;DHT22;49514;43.538;-5.708;2023-05-10T04:00:08;12.60;99.90
60234;DHT22;49514;43.538;-5.708;2023-05-10T04:02:41;12.60;99.90
60234;DHT22;49514;43.538;-5.708;2023-05-10T04:05:11;12.50;99.90
60234;DHT22;49514;43.538;-5.708;2023-05-10T04:07:37;12.40;99.90
60234;DHT22;49514;43.538;-5.708;2023-05-10T04:10:04;12.40;99.90
60234;DHT22;49514;43.538;-5.708;2023-05-10T04:12:31;12.40;99.90
60234;DHT22;49514;43.538;-5.708;2023-05-10T04:14:57;12.40;99.90
60234;DHT22;49514;43.538;-5.708;2023-05-10T04:17:24;12.40;99.90
60234;DHT22;49514;43.538;-5.708;2023-05-10T04:19:51;12.40;99.90
60234;DHT22;49514;43.538;-5.708;2023-05-10T04:22:20;12.30;99.90
60234;DHT22;49514;43.538;-5.708;2023-05-10T04:24:47;12.30;99.90
60234;DHT22;49514;43.538;-5.708;2023-05-10T04:27:13;12.30;99.90
60234;DHT22;49514;43.538;-5.708;2023-05-10T04:29:40;12.20;99.90
60234;DHT22;49514;43.538;-5.708;2023-05-10T04:32:07;12.20;99.90
60234;DHT22;49514;43.538;-5.708;2023-05-10T04:34:34;12.10;99.90
60234;DHT22;49514;43.538;-5.708;2023-05-10T04:37:00;12.10;99.90
60234;DHT22;49514;43.538;-5.708;2023-05-10T04:39:27;12.10;99.90
60234;DHT22;49514;43.538;-5.708;2023-05-10T04:41:54;12.00;99.90
60234;DHT22;49514;43.538;-5.708;2023-05-10T04:44:20;11.90;99.90
60234;DHT22;49514;43.538;-5.708;2023-05-10T04:46:47;11.90;99.90
60234;DHT22;49514;43.538;-5.708;2023-05-10T04:49:13;11.90;99.90
60234;DHT22;49514;43.538;-5.708;2023-05-10T04:51:40;11.90;99.90
60234;DHT22;49514;43.538;-5.708;2023-05-10T04:54:07;11.90;99.90
60234;DHT22;49514;43.538;-5.708;2023-05-10T04:56:33;11.90;99.90
60234;DHT22;49514;43.538;-5.708;2023-05-10T04:59:00;11.90;99.90
60234;DHT22;49514;43.538;-5.708;2023-05-10T05:01:26;11.90;99.90
60234;DHT22;49514;43.538;-5.708;2023-05-10T05:03:53;11.90;99.90
60234;DHT22;49514;43.538;-5.708;2023-05-10T05:06:20;11.90;99.90
60234;DHT22;49514;43.538;-5.708;2023-05-10T05:08:51;11.90;99.90
60234;DHT22;49514;43.538;-5.708;2023-05-10T05:11:17;11.90;99.90
60234;DHT22;49514;43.538;-5.708;2023-05-10T05:13:44;11.90;99.90
60234;DHT22;49514;43.538;-5.708;2023-05-10T05:16:11;11.90;99.90
60234;DHT22;49514;43.538;-5.708;2023-05-10T05:18:37;12.00;99.90
60234;DHT22;49514;43.538;-5.708;2023-05-10T05:21:14;12.00;99.90
60234;DHT22;49514;43.538;-5.708;2023-05-10T05:23:41;12.00;99.90
60234;DHT22;49514;43.538;-5.708;2023-05-10T05:26:08;12.00;99.90
60234;DHT22;49514;43.538;-5.708;2023-05-10T05:28:34;11.90;99.90
60234;DHT22;49514;43.538;-5.708;2023-05-10T05:31:07;12.00;99.90
60234;DHT22;49514;43.538;-5.708;2023-05-10T05:33:34;12.00;99.90
60234;DHT22;49514;43.538;-5.708;2023-05-10T05:36:02;12.20;99.90
60234;DHT22;49514;43.538;-5.708;2023-05-10T05:38:29;12.30;99.90
60234;DHT22;49514;43.538;-5.708;2023-05-10T05:40:56;12.40;99.90
60234;DHT22;49514;43.538;-5.708;2023-05-10T05:43:22;12.50;99.90
60234;DHT22;49514;43.538;-5.708;2023-05-10T05:45:49;12.60;99.90
60234;DHT22;49514;43.538;-5.708;2023-05-10T05:48:16;12.70;99.90
60234;DHT22;49514;43.538;-5.708;2023-05-10T05:50:42;12.70;99.90
60234;DHT22;49514;43.538;-5.708;2023-05-10T05:53:09;12.80;99.90
60234;DHT22;49514;43.538;-5.708;2023-05-10T05:55:36;12.90;99.90
60234;DHT22;49514;43.538;-5.708;2023-05-10T05:58:03;12.90;99.90
60234;DHT22;49514;43.538;-5.708;2023-05-10T06:00:30;13.00;99.90
60234;DHT22;49514;43.538;-5.708;2023-05-10T06:02:56;13.00;99.90
60234;DHT22;49514;43.538;-5.708;2023-05-10T06:05:23;13.10;99.90
60234;DHT22;49514;43.538;-5.708;2023-05-10T06:07:49;13.10;99.90
60234;DHT22;49514;43.538;-5.708;2023-05-10T06:10:16;13.10;99.90
60234;DHT22;49514;43.538;-5.708;2023-05-10T06:12:43;13.20;99.90
60234;DHT22;49514;43.538;-5.708;2023-05-10T06:15:10;13.30;99.90
60234;DHT22;49514;43.538;-5.708;2023-05-10T06:17:36;13.40;99.90
60234;DHT22;49514;43.538;-5.708;2023-05-10T06:20:05;13.50;99.90
60234;DHT22;49514;43.538;-5.708;2023-05-10T06:22:32;13.60;99.90
60234;DHT22;49514;43.538;-5.708;2023-05-10T06:24:59;13.60;99.90
60234;DHT22;49514;43.538;-5.708;2023-05-10T06:27:25;13.60;99.90
60234;DHT22;49514;43.538;-5.708;2023-05-10T06:29:52;13.60;99.90
60234;DHT22;49514;43.538;-5.708;2023-05-10T06:32:19;13.50;99.90
60234;DHT22;49514;43.538;-5.708;2023-05-10T06:34:45;13.50;99.90
60234;DHT22;49514;43.538;-5.708;2023-05-10T06:37:12;13.50;99.90
60234;DHT22;49514;43.538;-5.708;2023-05-10T06:39:39;13.50;99.90
60234;DHT22;49514;43.538;-5.708;2023-05-10T06:42:05;13.50;99.90
60234;DHT22;49514;43.538;-5.708;2023-05-10T06:44:33;13.50;99.90
60234;DHT22;49514;43.538;-5.708;2023-05-10T06:46:59;13.50;99.90
60234;DHT22;49514;43.538;-5.708;2023-05-10T06:49:26;13.60;99.90
60234;DHT22;49514;43.538;-5.708;2023-05-10T06:51:53;13.60;99.90
60234;DHT22;49514;43.538;-5.708;2023-05-10T06:54:19;13.60;99.90
60234;DHT22;49514;43.538;-5.708;2023-05-10T06:56:46;13.60;99.90
60234;DHT22;49514;43.538;-5.708;2023-05-10T06:59:12;13.70;99.90
60234;DHT22;49514;43.538;-5.708;2023-05-10T07:01:39;13.90;99.90
60234;DHT22;49514;43.538;-5.708;2023-05-10T07:04:06;14.00;99.90
60234;DHT22;49514;43.538;-5.708;2023-05-10T07:06:34;14.30;99.90
60234;DHT22;49514;43.538;-5.708;2023-05-10T07:09:00;14.60;99.90
60234;DHT22;49514;43.538;-5.708;2023-05-10T07:11:27;14.80;99.90
60234;DHT22;49514;43.538;-5.708;2023-05-10T07:13:54;15.00;99.90
60234;DHT22;49514;43.538;-5.708;2023-05-10T07:16:20;15.10;99.90
60234;DHT22;49514;43.538;-5.708;2023-05-10T07:18:47;15.10;99.90
60234;DHT22;49514;43.538;-5.708;2023-05-10T07:21:14;15.30;99.90
60234;DHT22;49514;43.538;-5.708;2023-05-10T07:23:40;15.30;99.90
60234;DHT22;49514;43.538;-5.708;2023-05-10T07:26:07;15.40;99.90
60234;DHT22;49514;43.538;-5.708;2023-05-10T07:28:35;15.70;99.90
60234;DHT22;49514;43.538;-5.708;2023-05-10T07:31:03;15.90;99.90
60234;DHT22;49514;43.538;-5.708;2023-05-10T07:33:30;15.90;99.90
60234;DHT22;49514;43.538;-5.708;2023-05-10T07:35:57;16.10;99.90
60234;DHT22;49514;43.538;-5.708;2023-05-10T07:38:24;16.10;99.90
60234;DHT22;49514;43.538;-5.708;2023-05-10T07:40:50;16.10;99.90
60234;DHT22;49514;43.538;-5.708;2023-05-10T07:43:17;16.30;99.90
60234;DHT22;49514;43.538;-5.708;2023-05-10T07:45:43;16.30;99.90
60234;DHT22;49514;43.538;-5.708;2023-05-10T07:48:10;16.40;99.90
60234;DHT22;49514;43.538;-5.708;2023-05-10T07:50:36;16.40;99.90
60234;DHT22;49514;43.538;-5.708;2023-05-10T07:53:03;16.60;99.90
60234;DHT22;49514;43.538;-5.708;2023-05-10T07:55:30;16.70;99.90
60234;DHT22;49514;43.538;-5.708;2023-05-10T07:57:56;16.70;99.90
60234;DHT22;49514;43.538;-5.708;2023-05-10T08:00:23;16.90;99.90
60234;DHT22;49514;43.538;-5.708;2023-05-10T08:02:49;17.00;99.90
60234;DHT22;49514;43.538;-5.708;2023-05-10T08:05:16;17.00;99.90
60234;DHT22;49514;43.538;-5.708;2023-05-10T08:07:43;17.00;99.90
60234;DHT22;49514;43.538;-5.708;2023-05-10T08:10:10;17.20;99.90
60234;DHT22;49514;43.538;-5.708;2023-05-10T08:12:40;17.30;99.90
60234;DHT22;49514;43.538;-5.708;2023-05-10T08:15:08;17.40;99.90
60234;DHT22;49514;43.538;-5.708;2023-05-10T08:17:35;17.50;99.90
60234;DHT22;49514;43.538;-5.708;2023-05-10T08:20:01;17.50;99.90
60234;DHT22;49514;43.538;-5.708;2023-05-10T08:22:28;17.60;99.90
60234;DHT22;49514;43.538;-5.708;2023-05-10T08:24:55;17.60;99.90
60234;DHT22;49514;43.538;-5.708;2023-05-10T08:27:22;17.60;99.90
60234;DHT22;49514;43.538;-5.708;2023-05-10T08:29:48;17.50;99.90
60234;DHT22;49514;43.538;-5.708;2023-05-10T08:32:15;17.50;99.90
60234;DHT22;49514;43.538;-5.708;2023-05-10T08:34:42;17.60;99.90
60234;DHT22;49514;43.538;-5.708;2023-05-10T08:37:08;17.70;99.90
60234;DHT22;49514;43.538;-5.708;2023-05-10T08:39:37;18.00;99.90
60234;DHT22;49514;43.538;-5.708;2023-05-10T08:42:04;18.30;99.90
60234;DHT22;49514;43.538;-5.708;2023-05-10T08:44:35;18.50;99.90
60234;DHT22;49514;43.538;-5.708;2023-05-10T08:47:04;18.60;99.90
60234;DHT22;49514;43.538;-5.708;2023-05-10T08:49:31;18.80;99.90
60234;DHT22;49514;43.538;-5.708;2023-05-10T08:51:59;18.80;99.90
60234;DHT22;49514;43.538;-5.708;2023-05-10T08:54:28;18.80;99.90
60234;DHT22;49514;43.538;-5.708;2023-05-10T08:56:54;18.80;99.90
60234;DHT22;49514;43.538;-5.708;2023-05-10T08:59:20;18.60;99.90
60234;DHT22;49514;43.538;-5.708;2023-05-10T09:01:47;18.60;99.90
60234;DHT22;49514;43.538;-5.708;2023-05-10T09:04:15;18.50;99.90
60234;DHT22;49514;43.538;-5.708;2023-05-10T09:06:41;18.40;99.90
60234;DHT22;49514;43.538;-5.708;2023-05-10T09:09:08;18.40;99.90
60234;DHT22;49514;43.538;-5.708;2023-05-10T09:11:34;18.40;99.90
60234;DHT22;49514;43.538;-5.708;2023-05-10T09:14:01;18.50;99.90
60234;DHT22;49514;43.538;-5.708;2023-05-10T09:16:28;18.70;99.90
60234;DHT22;49514;43.538;-5.708;2023-05-10T09:18:54;19.00;99.90
60234;DHT22;49514;43.538;-5.708;2023-05-10T09:21:20;19.20;99.90
60234;DHT22;49514;43.538;-5.708;2023-05-10T09:23:47;19.30;99.90
60234;DHT22;49514;43.538;-5.708;2023-05-10T09:26:15;19.00;99.90
60234;DHT22;49514;43.538;-5.708;2023-05-10T09:28:51;18.90;99.90
60234;DHT22;49514;43.538;-5.708;2023-05-10T09:31:18;18.90;99.90
60234;DHT22;49514;43.538;-5.708;2023-05-10T09:33:47;18.80;99.90
60234;DHT22;49514;43.538;-5.708;2023-05-10T09:36:15;18.80;99.90
60234;DHT22;49514;43.538;-5.708;2023-05-10T09:38:45;19.10;99.90
60234;DHT22;49514;43.538;-5.708;2023-05-10T09:41:19;19.20;99.90
60234;DHT22;49514;43.538;-5.708;2023-05-10T09:43:46;19.30;99.90
60234;DHT22;49514;43.538;-5.708;2023-05-10T09:46:13;19.40;99.90
60234;DHT22;49514;43.538;-5.708;2023-05-10T09:48:41;19.80;99.90
60234;DHT22;49514;43.538;-5.708;2023-05-10T09:51:07;19.90;99.90
60234;DHT22;49514;43.538;-5.708;2023-05-10T09:53:34;20.20;99.90
60234;DHT22;49514;43.538;-5.708;2023-05-10T09:56:00;20.40;99.90
60234;DHT22;49514;43.538;-5.708;2023-05-10T09:58:26;20.60;99.90
60234;DHT22;49514;43.538;-5.708;2023-05-10T10:00:53;20.70;99.90
60234;DHT22;49514;43.538;-5.708;2023-05-10T10:03:20;20.70;99.90
60234;DHT22;49514;43.538;-5.708;2023-05-10T10:05:48;20.60;99.50
60234;DHT22;49514;43.538;-5.708;2023-05-10T10:08:14;20.60;99.90
60234;DHT22;49514;43.538;-5.708;2023-05-10T10:10:41;20.40;99.10
60234;DHT22;49514;43.538;-5.708;2023-05-10T10:13:10;20.20;99.90
60234;DHT22;49514;43.538;-5.708;2023-05-10T10:15:36;20.30;99.90
60234;DHT22;49514;43.538;-5.708;2023-05-10T10:18:03;20.40;99.90
60234;DHT22;49514;43.538;-5.708;2023-05-10T10:20:31;20.60;99.90
60234;DHT22;49514;43.538;-5.708;2023-05-10T10:22:57;20.80;99.90
60234;DHT22;49514;43.538;-5.708;2023-05-10T10:25:23;21.10;99.40
60234;DHT22;49514;43.538;-5.708;2023-05-10T10:32:58;21.70;98.60
60234;DHT22;49514;43.538;-5.708;2023-05-10T10:35:31;21.50;97.50
60234;DHT22;49514;43.538;-5.708;2023-05-10T10:37:58;21.40;98.80
60234;DHT22;49514;43.538;-5.708;2023-05-10T10:40:29;21.40;98.30
60234;DHT22;49514;43.538;-5.708;2023-05-10T10:42:56;21.30;98.40
60234;DHT22;49514;43.538;-5.708;2023-05-10T10:45:24;21.20;98.40
60234;DHT22;49514;43.538;-5.708;2023-05-10T10:50:45;20.70;99.50
60234;DHT22;49514;43.538;-5.708;2023-05-10T10:53:12;20.80;99.90
60234;DHT22;49514;43.538;-5.708;2023-05-10T10:55:46;21.00;99.90
60234;DHT22;49514;43.538;-5.708;2023-05-10T10:58:12;21.20;99.60
60234;DHT22;49514;43.538;-5.708;2023-05-10T11:01:08;21.30;99.40
60234;DHT22;49514;43.538;-5.708;2023-05-10T11:03:36;21.40;99.30
60234;DHT22;49514;43.538;-5.708;2023-05-10T11:06:02;21.40;98.50
60234;DHT22;49514;43.538;-5.708;2023-05-10T11:08:30;21.20;98.90
60234;DHT22;49514;43.538;-5.708;2023-05-10T11:13:30;21.30;97.50
60234;DHT22;49514;43.538;-5.708;2023-05-10T11:15:57;21.30;97.20
60234;DHT22;49514;43.538;-5.708;2023-05-10T11:20:52;20.80;97.90
60234;DHT22;49514;43.538;-5.708;2023-05-10T11:23:18;20.50;97.60
60234;DHT22;49514;43.538;-5.708;2023-05-10T11:25:46;20.30;99.00
60234;DHT22;49514;43.538;-5.708;2023-05-10T11:28:13;20.30;99.60
60234;DHT22;49514;43.538;-5.708;2023-05-10T11:30:40;20.40;99.40
60234;DHT22;49514;43.538;-5.708;2023-05-10T11:33:07;20.70;99.40
60234;DHT22;49514;43.538;-5.708;2023-05-10T11:35:38;21.20;99.00
60234;DHT22;49514;43.538;-5.708;2023-05-10T11:38:06;21.60;98.00
60234;DHT22;49514;43.538;-5.708;2023-05-10T11:40:32;21.40;97.20
60234;DHT22;49514;43.538;-5.708;2023-05-10T11:42:59;21.30;97.80
60234;DHT22;49514;43.538;-5.708;2023-05-10T11:45:25;22.00;98.50
60234;DHT22;49514;43.538;-5.708;2023-05-10T11:47:52;22.30;96.40
60234;DHT22;49514;43.538;-5.708;2023-05-10T11:50:18;22.90;95.70
60234;DHT22;49514;43.538;-5.708;2023-05-10T11:52:44;23.10;95.90
60234;DHT22;49514;43.538;-5.708;2023-05-10T11:55:11;23.00;95.20
60234;DHT22;49514;43.538;-5.708;2023-05-10T11:57:38;23.10;95.00
60234;DHT22;49514;43.538;-5.708;2023-05-10T12:00:04;23.10;93.10
60234;DHT22;49514;43.538;-5.708;2023-05-10T12:02:34;23.30;93.20
60234;DHT22;49514;43.538;-5.708;2023-05-10T12:05:00;23.40;89.20
60234;DHT22;49514;43.538;-5.708;2023-05-10T12:07:27;23.40;91.10
60234;DHT22;49514;43.538;-5.708;2023-05-10T12:10:06;23.70;91.00
60234;DHT22;49514;43.538;-5.708;2023-05-10T12:12:45;24.20;90.20
60234;DHT22;49514;43.538;-5.708;2023-05-10T12:15:17;24.60;88.60
60234;DHT22;49514;43.538;-5.708;2023-05-10T12:17:45;24.80;86.20
60234;DHT22;49514;43.538;-5.708;2023-05-10T12:20:15;24.70;85.00
60234;DHT22;49514;43.538;-5.708;2023-05-10T12:22:45;24.70;81.90
60234;DHT22;49514;43.538;-5.708;2023-05-10T12:25:12;24.90;84.70
60234;DHT22;49514;43.538;-5.708;2023-05-10T12:27:38;25.00;83.00
60234;DHT22;49514;43.538;-5.708;2023-05-10T12:30:05;24.90;79.90
60234;DHT22;49514;43.538;-5.708;2023-05-10T12:32:41;24.90;79.30
60234;DHT22;49514;43.538;-5.708;2023-05-10T12:35:08;24.80;79.70
60234;DHT22;49514;43.538;-5.708;2023-05-10T12:37:36;24.60;76.70
60234;DHT22;49514;43.538;-5.708;2023-05-10T12:40:05;24.50;76.40
60234;DHT22;49514;43.538;-5.708;2023-05-10T12:42:32;24.70;78.70
60234;DHT22;49514;43.538;-5.708;2023-05-10T12:44:58;25.10;80.40
60234;DHT22;49514;43.538;-5.708;2023-05-10T12:47:25;25.50;77.40
60234;DHT22;49514;43.538;-5.708;2023-05-10T12:49:51;25.70;75.20
60234;DHT22;49514;43.538;-5.708;2023-05-10T12:52:18;25.70;75.00
60234;DHT22;49514;43.538;-5.708;2023-05-10T12:54:45;25.60;72.50
60234;DHT22;49514;43.538;-5.708;2023-05-10T12:57:12;25.40;72.50
60234;DHT22;49514;43.538;-5.708;2023-05-10T12:59:39;25.60;72.50
60234;DHT22;49514;43.538;-5.708;2023-05-10T13:02:06;25.60;72.60
60234;DHT22;49514;43.538;-5.708;2023-05-10T13:04:32;27.30;71.40
60234;DHT22;49514;43.538;-5.708;2023-05-10T13:06:59;27.10;70.70
60234;DHT22;49514;43.538;-5.708;2023-05-10T13:09:26;27.00;69.60
60234;DHT22;49514;43.538;-5.708;2023-05-10T13:11:53;26.50;70.70
60234;DHT22;49514;43.538;-5.708;2023-05-10T13:14:20;26.80;72.60
60234;DHT22;49514;43.538;-5.708;2023-05-10T13:16:47;27.30;71.40
60234;DHT22;49514;43.538;-5.708;2023-05-10T13:19:14;29.90;68.00
60234;DHT22;49514;43.538;-5.708;2023-05-10T13:21:40;30.20;65.00
60234;DHT22;49514;43.538;-5.708;2023-05-10T13:24:07;29.40;64.30
60234;DHT22;49514;43.538;-5.708;2023-05-10T13:26:34;28.40;64.80
60234;DHT22;49514;43.538;-5.708;2023-05-10T13:29:02;29.70;66.50
60234;DHT22;49514;43.538;-5.708;2023-05-10T13:31:29;32.20;65.40
60234;DHT22;49514;43.538;-5.708;2023-05-10T13:33:55;35.00;80.10
60234;DHT22;49514;43.538;-5.708;2023-05-10T13:38:49;33.30;88.80
60234;DHT22;49514;43.538;-5.708;2023-05-10T13:41:15;33.40;68.80
60234;DHT22;49514;43.538;-5.708;2023-05-10T13:43:42;35.10;66.70
60234;DHT22;49514;43.538;-5.708;2023-05-10T13:46:08;37.80;55.10
60234;DHT22;49514;43.538;-5.708;2023-05-10T13:48:35;37.80;51.90
60234;DHT22;49514;43.538;-5.708;2023-05-10T13:51:03;39.10;51.40
60234;DHT22;49514;43.538;-5.708;2023-05-10T13:53:30;39.20;51.70
60234;DHT22;49514;43.538;-5.708;2023-05-10T13:55:57;38.30;50.40
60234;DHT22;49514;43.538;-5.708;2023-05-10T13:58:23;38.20;50.20
60234;DHT22;49514;43.538;-5.708;2023-05-10T14:00:50;36.80;49.60
60234;DHT22;49514;43.538;-5.708;2023-05-10T14:03:16;37.40;48.70
60234;DHT22;49514;43.538;-5.708;2023-05-10T14:05:43;37.20;49.90
60234;DHT22;49514;43.538;-5.708;2023-05-10T14:08:11;37.00;50.90
60234;DHT22;49514;43.538;-5.708;2023-05-10T14:10:39;38.90;50.90
60234;DHT22;49514;43.538;-5.708;2023-05-10T14:13:07;38.70;48.20
60234;DHT22;49514;43.538;-5.708;2023-05-10T14:15:34;40.80;49.40
60234;DHT22;49514;43.538;-5.708;2023-05-10T14:18:00;40.90;47.60
60234;DHT22;49514;43.538;-5.708;2023-05-10T14:20:28;42.00;48.50
60234;DHT22;49514;43.538;-5.708;2023-05-10T14:22:55;42.00;48.00
60234;DHT22;49514;43.538;-5.708;2023-05-10T14:25:22;41.30;46.50
60234;DHT22;49514;43.538;-5.708;2023-05-10T14:27:49;40.60;46.20
60234;DHT22;49514;43.538;-5.708;2023-05-10T14:30:16;40.50;45.50
60234;DHT22;49514;43.538;-5.708;2023-05-10T14:32:43;39.50;45.00
60234;DHT22;49514;43.538;-5.708;2023-05-10T14:35:09;38.00;46.10
60234;DHT22;49514;43.538;-5.708;2023-05-10T14:37:38;37.30;46.80
60234;DHT22;49514;43.538;-5.708;2023-05-10T14:40:06;36.50;46.80
60234;DHT22;49514;43.538;-5.708;2023-05-10T14:42:32;35.80;46.30
60234;DHT22;49514;43.538;-5.708;2023-05-10T14:44:59;35.30;47.20
60234;DHT22;49514;43.538;-5.708;2023-05-10T14:47:26;34.90;47.70
60234;DHT22;49514;43.538;-5.708;2023-05-10T14:49:52;34.00;47.70
60234;DHT22;49514;43.538;-5.708;2023-05-10T14:52:18;33.20;48.00
60234;DHT22;49514;43.538;-5.708;2023-05-10T14:54:45;32.80;49.80
60234;DHT22;49514;43.538;-5.708;2023-05-10T14:57:11;32.10;49.40
60234;DHT22;49514;43.538;-5.708;2023-05-10T14:59:37;31.90;50.10
60234;DHT22;49514;43.538;-5.708;2023-05-10T15:02:04;31.90;49.60
60234;DHT22;49514;43.538;-5.708;2023-05-10T15:04:30;33.10;50.50
60234;DHT22;49514;43.538;-5.708;2023-05-10T15:06:57;34.70;50.40
60234;DHT22;49514;43.538;-5.708;2023-05-10T15:09:25;38.30;49.80
60234;DHT22;49514;43.538;-5.708;2023-05-10T15:11:53;38.80;46.50
60234;DHT22;49514;43.538;-5.708;2023-05-10T15:14:20;40.10;47.90
60234;DHT22;49514;43.538;-5.708;2023-05-10T15:16:46;41.70;46.80
60234;DHT22;49514;43.538;-5.708;2023-05-10T15:19:13;43.00;45.20
60234;DHT22;49514;43.538;-5.708;2023-05-10T15:21:39;43.10;45.60
60234;DHT22;49514;43.538;-5.708;2023-05-10T15:24:08;42.50;44.90
60234;DHT22;49514;43.538;-5.708;2023-05-10T15:26:35;41.70;45.10
60234;DHT22;49514;43.538;-5.708;2023-05-10T15:29:04;40.20;61.30
60234;DHT22;49514;43.538;-5.708;2023-05-10T15:31:30;40.00;58.00
60234;DHT22;49514;43.538;-5.708;2023-05-10T15:33:56;39.10;58.80
60234;DHT22;49514;43.538;-5.708;2023-05-10T15:36:23;40.60;60.00
60234;DHT22;49514;43.538;-5.708;2023-05-10T15:38:49;42.10;58.80
60234;DHT22;49514;43.538;-5.708;2023-05-10T15:41:16;43.30;58.50